Time;durP1;ratioP1;P1;durP2;ratioP2;P2;SDS_P1;SDS_P2;PMS_P1;PMS_P2;Temp;Humidity;BMP_temperature;BMP_pressure;BME280_temperature;BME280_humidity;BME280_pressure;Samples;Min_cycle;Max_cycle;Signal;HPM_P1;HPM_P2
2023/08/28 00:00:47;;;;;;;0.40;0.40;;;13.30;99.90;;;;;;4968306;28;20058;-75
2023/08/28 00:03:14;;;;;;;0.40;0.40;;;13.20;99.90;;;;;;4970813;28;20129;-75
2023/08/28 00:05:40;;;;;;;0.70;0.40;;;13.30;99.90;;;;;;4970723;28;20101;-75
2023/08/28 00:08:06;;;;;;;0.50;0.50;;;13.30;99.90;;;;;;4954283;28;20035;-75
2023/08/28 00:10:32;;;;;;;1.13;0.80;;;13.30;99.90;;;;;;4992432;28;20050;-75
2023/08/28 00:12:58;;;;;;;0.98;0.60;;;13.20;99.90;;;;;;4954683;28;20043;-75
2023/08/28 00:15:24;;;;;;;0.60;0.40;;;13.30;99.90;;;;;;4954765;28;20069;-75
2023/08/28 00:17:49;;;;;;;0.75;0.60;;;13.30;99.90;;;;;;4953763;28;20065;-75
2023/08/28 00:20:16;;;;;;;1.02;0.63;;;13.30;99.90;;;;;;5000696;28;20121;-75
2023/08/28 00:22:42;;;;;;;0.95;0.60;;;13.30;99.90;;;;;;4970471;28;20039;-75
2023/08/28 00:25:08;;;;;;;0.70;0.40;;;13.40;99.90;;;;;;4954332;28;20047;-75
2023/08/28 00:27:34;;;;;;;;;;;13.40;99.90;;;;;;4965796;28;20121;-75
2023/08/28 00:30:00;;;;;;;0.60;0.45;;;13.50;99.90;;;;;;4945455;28;19974;-75
2023/08/28 00:32:26;;;;;;;;;;;13.40;99.90;;;;;;4957123;28;20047;-75
2023/08/28 00:34:53;;;;;;;0.50;0.50;;;13.40;99.90;;;;;;4969043;28;19918;-75
2023/08/28 00:37:18;;;;;;;0.50;0.45;;;13.40;99.90;;;;;;4959612;28;20623;-75
2023/08/28 00:39:44;;;;;;;1.85;0.50;;;13.40;99.90;;;;;;4958894;28;20057;-75
2023/08/28 00:42:10;;;;;;;1.08;0.70;;;13.30;99.90;;;;;;5002257;28;20045;-75
2023/08/28 00:44:35;;;;;;;1.30;0.70;;;13.30;99.90;;;;;;4954259;28;20038;-75
2023/08/28 00:47:02;;;;;;;0.75;0.50;;;13.30;99.90;;;;;;4969865;28;20134;-75
2023/08/28 00:49:30;;;;;;;0.65;0.57;;;13.20;99.90;;;;;;4961497;28;20126;-75
2023/08/28 00:51:56;;;;;;;0.73;0.57;;;13.20;99.90;;;;;;4953855;28;20141;-75
2023/08/28 00:54:22;;;;;;;1.30;0.60;;;13.20;99.90;;;;;;4970291;28;20113;-75
2023/08/28 00:56:48;;;;;;;;;;;13.10;99.90;;;;;;4969775;28;20499;-75
2023/08/28 00:59:15;;;;;;;0.57;0.50;;;13.20;99.90;;;;;;4983535;28;19967;-75
2023/08/28 01:01:41;;;;;;;1.00;0.60;;;13.10;99.90;;;;;;4956320;28;20134;-75
2023/08/28 01:04:07;;;;;;;1.80;0.60;;;13.10;99.90;;;;;;4935897;28;20146;-75
2023/08/28 01:06:59;;;;;;;1.33;0.60;;;13.10;99.90;;;;;;4969320;28;20518;-75
2023/08/28 01:09:37;;;;;;;1.77;0.77;;;13.10;99.90;;;;;;4968975;28;20050;-75
2023/08/28 01:12:11;;;;;;;1.17;0.75;;;13.00;99.90;;;;;;4972954;28;20573;-75
2023/08/28 01:15:05;;;;;;;0.55;0.55;;;13.00;99.90;;;;;;4973761;28;20048;-75
2023/08/28 01:17:31;;;;;;;0.50;0.50;;;13.00;99.90;;;;;;4969338;28;20536;-75
2023/08/28 01:19:59;;;;;;;0.57;0.40;;;13.00;99.90;;;;;;4956283;28;20050;-75
2023/08/28 01:22:49;;;;;;;1.38;0.50;;;12.90;99.90;;;;;;4973412;28;20471;-75
2023/08/28 01:25:16;;;;;;;0.30;0.30;;;12.90;99.90;;;;;;4957067;28;20085;-75
2023/08/28 01:27:42;;;;;;;0.65;0.40;;;12.90;99.90;;;;;;4954494;28;20145;-75
2023/08/28 01:30:10;;;;;;;0.88;0.57;;;12.90;99.90;;;;;;4971444;28;20132;-75
2023/08/28 01:32:37;;;;;;;0.70;0.60;;;12.90;99.90;;;;;;4956181;28;20858;-75
2023/08/28 01:35:09;;;;;;;0.65;0.50;;;12.90;99.90;;;;;;4972189;28;20510;-75
2023/08/28 01:37:46;;;;;;;0.93;0.50;;;12.90;99.90;;;;;;4981054;28;20079;-75
2023/08/28 01:40:14;;;;;;;1.35;0.45;;;12.90;99.90;;;;;;5005564;28;20050;-74
2023/08/28 01:42:43;;;;;;;1.00;0.40;;;12.80;99.90;;;;;;4972715;28;20344;-75
2023/08/28 01:45:10;;;;;;;0.63;0.43;;;12.80;99.90;;;;;;4973091;28;20121;-75
2023/08/28 01:47:36;;;;;;;0.82;0.30;;;12.80;99.90;;;;;;4972751;28;20047;-75
2023/08/28 01:50:02;;;;;;;0.70;0.70;;;12.80;99.90;;;;;;4987892;28;20089;-75
2023/08/28 01:52:28;;;;;;;0.60;0.50;;;12.80;99.90;;;;;;4972846;28;20137;-75
2023/08/28 01:54:54;;;;;;;0.70;0.50;;;12.90;99.90;;;;;;4939402;28;20126;-75
2023/08/28 01:57:19;;;;;;;1.13;0.70;;;12.90;99.90;;;;;;4971133;28;20816;-75
2023/08/28 01:59:45;;;;;;;0.95;0.65;;;12.90;99.90;;;;;;4972083;28;20031;-75
2023/08/28 02:02:11;;;;;;;1.27;0.50;;;12.90;99.90;;;;;;4971112;28;20058;-75
2023/08/28 02:04:36;;;;;;;0.98;0.60;;;12.90;99.90;;;;;;4951637;28;20046;-75
2023/08/28 02:07:02;;;;;;;1.83;0.73;;;13.00;99.90;;;;;;4981952;28;20538;-75
2023/08/28 02:09:28;;;;;;;;;;;12.90;99.90;;;;;;4940956;29;20043;-74
2023/08/28 02:11:54;;;;;;;1.02;0.50;;;13.00;99.90;;;;;;4990585;28;19918;-75
2023/08/28 02:14:19;;;;;;;1.25;0.52;;;12.90;99.90;;;;;;4961409;28;20043;-75
2023/08/28 02:16:46;;;;;;;0.43;0.40;;;12.90;99.90;;;;;;4991253;28;20047;-75
2023/08/28 02:19:12;;;;;;;0.50;0.50;;;12.90;99.90;;;;;;4975889;28;20058;-75
2023/08/28 02:21:37;;;;;;;0.95;0.43;;;12.90;99.90;;;;;;4960971;28;20043;-75
2023/08/28 02:24:03;;;;;;;0.40;0.35;;;12.80;99.90;;;;;;4964017;28;20054;-75
2023/08/28 02:26:29;;;;;;;0.30;0.30;;;12.80;99.90;;;;;;4960370;28;20050;-74
2023/08/28 02:28:55;;;;;;;0.75;0.50;;;12.70;99.90;;;;;;4983709;28;20065;-75
2023/08/28 02:31:20;;;;;;;0.80;0.50;;;12.70;99.90;;;;;;4962504;28;20046;-75
2023/08/28 02:33:46;;;;;;;0.65;0.40;;;12.70;99.90;;;;;;4975571;28;20043;-74
2023/08/28 02:36:13;;;;;;;0.45;0.40;;;12.60;99.90;;;;;;4957279;28;20080;-75
2023/08/28 02:38:39;;;;;;;0.40;0.40;;;12.60;99.90;;;;;;4972327;28;20047;-75
2023/08/28 02:41:06;;;;;;;0.30;0.30;;;12.60;99.90;;;;;;4971493;28;20066;-75
2023/08/28 02:43:32;;;;;;;0.43;0.22;;;12.50;99.90;;;;;;4967624;28;20070;-75
2023/08/28 02:45:58;;;;;;;0.47;0.45;;;12.50;99.90;;;;;;4972039;28;20151;-75
2023/08/28 02:48:23;;;;;;;0.90;0.45;;;12.50;99.90;;;;;;4971461;28;20062;-75
2023/08/28 02:50:50;;;;;;;0.40;0.40;;;12.50;99.90;;;;;;4966841;28;20046;-74
2023/08/28 02:53:15;;;;;;;;;;;12.50;99.90;;;;;;4971270;28;20062;-75
2023/08/28 02:55:42;;;;;;;0.60;0.40;;;12.60;99.90;;;;;;4959256;28;19922;-75
2023/08/28 02:58:09;;;;;;;0.32;0.32;;;12.50;99.90;;;;;;4967823;28;20718;-75
2023/08/28 03:00:37;;;;;;;0.40;0.40;;;12.50;99.90;;;;;;4971179;28;20054;-75
2023/08/28 03:03:04;;;;;;;0.30;0.30;;;12.50;99.90;;;;;;4938244;28;20051;-74
2023/08/28 03:05:29;;;;;;;0.35;0.35;;;12.50;99.90;;;;;;4971187;28;20467;-74
2023/08/28 03:07:55;;;;;;;0.30;0.30;;;12.40;99.90;;;;;;4955158;28;20046;-74
2023/08/28 03:10:21;;;;;;;0.35;0.35;;;12.40;99.90;;;;;;4971673;28;20461;-74
2023/08/28 03:12:46;;;;;;;0.70;0.43;;;12.40;99.90;;;;;;4955608;28;20047;-75
2023/08/28 03:15:12;;;;;;;0.30;0.30;;;12.40;99.90;;;;;;4971975;28;20062;-74
2023/08/28 03:17:38;;;;;;;1.27;0.30;;;12.40;99.90;;;;;;4954898;28;20057;-74
2023/08/28 03:20:04;;;;;;;0.70;0.32;;;12.40;99.90;;;;;;4972776;28;20113;-74
2023/08/28 03:22:29;;;;;;;0.32;0.32;;;12.40;99.90;;;;;;4971349;28;20045;-74
2023/08/28 03:24:55;;;;;;;0.30;0.30;;;12.40;99.90;;;;;;4962974;28;20047;-74
2023/08/28 03:27:21;;;;;;;0.43;0.40;;;12.30;99.90;;;;;;4964143;28;20479;-74
2023/08/28 03:29:47;;;;;;;0.82;0.52;;;12.40;99.90;;;;;;4971399;28;20047;-74
2023/08/28 03:32:13;;;;;;;0.57;0.40;;;12.30;99.90;;;;;;4939431;28;20054;-74
2023/08/28 03:34:39;;;;;;;0.68;0.47;;;12.40;99.90;;;;;;4965113;28;20131;-74
2023/08/28 03:37:05;;;;;;;0.50;0.50;;;12.30;99.90;;;;;;4962491;28;20117;-74
2023/08/28 03:39:31;;;;;;;0.40;0.40;;;12.30;99.90;;;;;;4971255;28;20055;-74
2023/08/28 03:41:56;;;;;;;0.35;0.35;;;12.30;99.90;;;;;;4953808;28;20039;-74
2023/08/28 03:44:22;;;;;;;0.57;0.57;;;12.30;99.90;;;;;;4970718;28;20047;-74
2023/08/28 03:46:48;;;;;;;0.45;0.45;;;12.30;99.90;;;;;;5003348;28;20043;-74
2023/08/28 03:49:13;;;;;;;0.55;0.50;;;12.30;99.90;;;;;;4971067;28;20401;-74
2023/08/28 03:51:39;;;;;;;0.50;0.50;;;12.30;99.90;;;;;;4968404;28;20416;-74
2023/08/28 03:54:12;;;;;;;1.00;0.60;;;12.30;99.90;;;;;;4954609;28;20116;-74
2023/08/28 03:56:38;;;;;;;0.55;0.50;;;12.20;99.90;;;;;;4954691;28;20112;-74
2023/08/28 03:59:03;;;;;;;0.85;0.50;;;12.10;99.90;;;;;;4979420;28;20046;-74
2023/08/28 04:01:29;;;;;;;0.63;0.60;;;12.10;99.90;;;;;;4985172;28;20050;-74
2023/08/28 04:03:55;;;;;;;0.43;0.40;;;12.10;99.90;;;;;;4954649;28;20034;-74
2023/08/28 04:06:21;;;;;;;0.32;0.32;;;12.10;99.90;;;;;;4954435;28;20035;-74
2023/08/28 04:08:47;;;;;;;0.35;0.35;;;12.10;99.90;;;;;;4962135;28;20066;-75
2023/08/28 04:11:13;;;;;;;0.47;0.47;;;12.10;99.90;;;;;;4970735;28;20085;-74
2023/08/28 04:13:38;;;;;;;0.80;0.50;;;12.10;99.90;;;;;;4953879;28;20046;-74
2023/08/28 04:16:05;;;;;;;0.30;0.30;;;12.10;99.90;;;;;;4964048;28;20046;-74
2023/08/28 04:18:31;;;;;;;0.50;0.50;;;12.00;99.90;;;;;;4968739;28;20066;-74
2023/08/28 04:20:57;;;;;;;0.40;0.35;;;12.00;99.90;;;;;;4952067;28;20047;-74
2023/08/28 04:23:23;;;;;;;0.93;0.45;;;12.00;99.90;;;;;;4954722;28;20133;-75
2023/08/28 04:25:48;;;;;;;0.40;0.40;;;12.00;99.90;;;;;;4939481;28;20102;-75
2023/08/28 04:28:15;;;;;;;1.58;0.57;;;12.00;99.90;;;;;;4970753;28;20049;-75
2023/08/28 04:30:42;;;;;;;0.73;0.50;;;12.00;99.90;;;;;;4946653;28;20039;-75
2023/08/28 04:33:07;;;;;;;0.50;0.50;;;11.90;99.90;;;;;;4963907;28;20098;-75
2023/08/28 04:35:33;;;;;;;0.40;0.40;;;12.00;99.90;;;;;;4964042;28;20046;-75
2023/08/28 04:37:59;;;;;;;0.57;0.50;;;11.90;99.90;;;;;;4971636;28;20047;-75
2023/08/28 04:40:25;;;;;;;0.90;0.70;;;11.90;99.90;;;;;;4930479;29;20047;-75
2023/08/28 04:42:50;;;;;;;0.45;0.45;;;11.90;99.90;;;;;;4966077;28;20054;-75
2023/08/28 04:45:16;;;;;;;0.50;0.50;;;11.80;99.90;;;;;;4944794;28;20521;-75
2023/08/28 04:47:42;;;;;;;0.57;0.50;;;11.80;99.90;;;;;;4957834;28;20049;-74
2023/08/28 04:50:08;;;;;;;0.47;0.47;;;11.90;99.90;;;;;;4972728;28;20053;-75
2023/08/28 04:52:33;;;;;;;0.50;0.50;;;11.80;99.90;;;;;;4973485;28;20487;-75
2023/08/28 04:54:59;;;;;;;0.50;0.50;;;11.80;99.90;;;;;;4974058;28;20055;-75
2023/08/28 04:57:25;;;;;;;0.63;0.52;;;11.80;99.90;;;;;;4951207;29;20051;-75
2023/08/28 04:59:50;;;;;;;0.60;0.60;;;11.80;99.90;;;;;;4971162;28;20064;-75
2023/08/28 05:02:16;;;;;;;0.43;0.43;;;11.90;99.90;;;;;;4983105;28;20497;-75
2023/08/28 05:04:42;;;;;;;0.47;0.47;;;11.90;99.90;;;;;;4967025;28;20443;-75
2023/08/28 05:07:07;;;;;;;0.60;0.50;;;11.90;99.90;;;;;;4953843;28;20399;-75
2023/08/28 05:09:33;;;;;;;0.40;0.40;;;12.00;99.90;;;;;;4973832;28;20042;-75
2023/08/28 05:11:59;;;;;;;0.38;0.38;;;12.00;99.90;;;;;;4973614;28;20502;-74
2023/08/28 05:14:25;;;;;;;1.20;0.80;;;11.80;99.90;;;;;;4974156;28;20059;-75
2023/08/28 05:16:50;;;;;;;0.47;0.45;;;11.90;99.90;;;;;;4972885;28;20511;-74
2023/08/28 05:19:16;;;;;;;0.57;0.50;;;11.80;99.90;;;;;;4973638;28;20133;-74
2023/08/28 05:21:41;;;;;;;1.30;0.70;;;11.90;99.90;;;;;;4972733;28;20049;-75
2023/08/28 05:24:07;;;;;;;0.82;0.40;;;11.90;99.90;;;;;;4972329;28;20038;-75
2023/08/28 05:26:33;;;;;;;0.70;0.60;;;12.00;99.90;;;;;;4999237;28;20046;-74
2023/08/28 05:28:58;;;;;;;0.85;0.52;;;12.10;99.90;;;;;;4971915;28;20047;-75
2023/08/28 05:31:24;;;;;;;0.57;0.38;;;12.10;99.90;;;;;;4971568;28;20512;-75
2023/08/28 05:33:50;;;;;;;0.68;0.60;;;12.10;99.90;;;;;;5002025;28;20074;-75
2023/08/28 05:36:15;;;;;;;0.65;0.50;;;12.20;99.90;;;;;;4950864;28;20501;-75
2023/08/28 05:38:41;;;;;;;0.73;0.52;;;12.30;99.90;;;;;;4961233;28;20046;-75
2023/08/28 05:41:07;;;;;;;0.63;0.40;;;12.30;99.90;;;;;;4965189;28;20043;-74
2023/08/28 05:43:32;;;;;;;0.65;0.50;;;12.30;99.90;;;;;;4952822;29;20039;-75
2023/08/28 05:45:58;;;;;;;0.93;0.80;;;12.40;99.90;;;;;;4964893;28;20466;-75
2023/08/28 05:48:24;;;;;;;1.17;0.60;;;12.40;99.90;;;;;;4973177;28;20041;-75
2023/08/28 05:50:50;;;;;;;0.50;0.50;;;12.40;99.90;;;;;;4955937;28;20058;-75
2023/08/28 05:53:16;;;;;;;;;;;12.60;99.90;;;;;;4971767;28;20055;-75
2023/08/28 05:55:41;;;;;;;0.50;0.50;;;12.60;99.90;;;;;;5004753;28;19922;-75
2023/08/28 05:58:07;;;;;;;0.55;0.55;;;12.70;99.90;;;;;;4938935;28;20034;-75
2023/08/28 06:00:33;;;;;;;0.50;0.50;;;12.70;99.90;;;;;;4971161;28;20043;-75
2023/08/28 06:02:59;;;;;;;;;;;12.70;99.90;;;;;;4964261;28;20047;-75
2023/08/28 06:05:25;;;;;;;0.82;0.60;;;12.70;99.90;;;;;;5004680;28;19929;-75
2023/08/28 06:07:50;;;;;;;1.25;0.70;;;12.90;99.90;;;;;;4972719;28;20046;-75
2023/08/28 06:10:19;;;;;;;0.82;0.75;;;13.00;99.90;;;;;;4954921;28;20070;-75
2023/08/28 06:12:49;;;;;;;2.45;1.20;;;13.10;99.90;;;;;;4971145;28;20526;-75
2023/08/28 06:15:19;;;;;;;1.90;1.30;;;13.20;99.90;;;;;;4955987;28;20047;-75
2023/08/28 06:17:46;;;;;;;1.63;1.40;;;13.30;99.90;;;;;;4966361;28;20502;-75
2023/08/28 06:20:11;;;;;;;1.35;1.20;;;13.50;99.90;;;;;;4969431;28;20050;-75
2023/08/28 06:22:38;;;;;;;2.70;1.50;;;13.60;99.90;;;;;;4971572;28;20086;-75
2023/08/28 06:25:04;;;;;;;0.85;0.80;;;13.70;99.90;;;;;;4958004;28;20039;-75
2023/08/28 06:27:30;;;;;;;1.27;0.82;;;13.90;99.90;;;;;;4971689;28;20513;-75
2023/08/28 06:29:56;;;;;;;1.10;0.90;;;14.00;99.90;;;;;;4974416;28;20042;-75
2023/08/28 06:32:22;;;;;;;1.52;0.90;;;14.20;99.90;;;;;;4956229;28;20041;-76
2023/08/28 06:34:48;;;;;;;1.85;0.70;;;14.60;99.90;;;;;;4971544;28;20038;-75
2023/08/28 06:37:13;;;;;;;2.20;0.75;;;14.90;99.90;;;;;;5002137;28;20047;-75
2023/08/28 06:39:39;;;;;;;0.85;0.70;;;15.20;99.90;;;;;;4971448;28;20058;-75
2023/08/28 06:42:04;;;;;;;1.10;0.90;;;15.60;99.90;;;;;;4956906;28;20134;-75
2023/08/28 06:44:30;;;;;;;0.95;0.70;;;16.00;99.90;;;;;;4970403;28;20034;-75
2023/08/28 06:46:56;;;;;;;1.30;0.75;;;16.30;99.90;;;;;;4971837;28;20042;-74
2023/08/28 06:49:22;;;;;;;0.98;0.60;;;16.50;99.90;;;;;;4955937;28;20050;-76
2023/08/28 06:51:47;;;;;;;;;;;16.70;99.90;;;;;;4956624;28;20359;-75
2023/08/28 06:54:13;;;;;;;1.52;0.75;;;16.90;99.90;;;;;;4972950;28;19977;-74
2023/08/28 06:56:39;;;;;;;1.05;0.60;;;16.90;99.90;;;;;;4973390;28;20050;-76
2023/08/28 06:59:05;;;;;;;0.73;0.60;;;17.00;99.90;;;;;;4971471;28;20035;-74
2023/08/28 07:01:32;;;;;;;0.57;0.50;;;17.10;99.90;;;;;;4991130;28;20185;-75
2023/08/28 07:03:57;;;;;;;3.38;0.80;;;17.00;99.90;;;;;;4987135;28;20045;-75
2023/08/28 07:06:23;;;;;;;1.35;0.77;;;16.90;99.90;;;;;;4971057;28;20034;-75
2023/08/28 07:08:49;;;;;;;1.75;0.50;;;17.30;99.90;;;;;;4971843;28;20089;-74
2023/08/28 07:11:14;;;;;;;0.57;0.57;;;17.60;99.90;;;;;;4971920;28;20423;-75
2023/08/28 07:13:40;;;;;;;0.70;0.50;;;17.80;99.90;;;;;;4955413;28;20113;-76
2023/08/28 07:16:06;;;;;;;0.70;0.60;;;18.10;99.90;;;;;;4987507;28;20042;-75
2023/08/28 07:18:32;;;;;;;1.02;0.63;;;18.20;99.90;;;;;;4971711;28;20050;-75
2023/08/28 07:20:57;;;;;;;1.92;0.80;;;18.20;99.90;;;;;;4972533;28;20410;-75
2023/08/28 07:23:25;;;;;;;1.70;0.90;;;18.10;99.90;;;;;;4971536;28;20482;-76
2023/08/28 07:25:51;;;;;;;1.02;0.70;;;18.00;99.90;;;;;;4971017;28;20042;-75
2023/08/28 07:28:17;;;;;;;;;;;17.90;99.90;;;;;;4962603;28;20138;-75
2023/08/28 07:30:43;;;;;;;0.90;0.70;;;17.90;99.90;;;;;;4982921;28;19922;-75
2023/08/28 07:33:09;;;;;;;1.35;0.88;;;17.90;99.90;;;;;;4971337;28;20050;-75
2023/08/28 07:35:36;;;;;;;1.00;0.70;;;18.00;84.30;;;;;;4972535;28;20121;-75
2023/08/28 07:38:06;;;;;;;0.70;0.68;;;18.00;99.90;;;;;;4969498;28;20440;-75
2023/08/28 07:40:32;;;;;;;1.90;0.95;;;18.10;93.00;;;;;;4967841;28;20207;-75
2023/08/28 07:42:59;;;;;;;2.10;0.77;;;18.00;99.90;;;;;;4965465;28;20051;-75
2023/08/28 07:45:26;;;;;;;1.70;0.93;;;17.90;82.20;;;;;;4971044;28;20098;-75
2023/08/28 07:47:51;;;;;;;;;;;18.00;99.90;;;;;;4971555;28;20133;-74
2023/08/28 07:50:17;;;;;;;1.42;0.80;;;18.00;99.90;;;;;;4989668;28;20358;-74
2023/08/28 07:52:43;;;;;;;;;;;18.10;99.90;;;;;;4986874;28;20518;-73
2023/08/28 07:55:09;;;;;;;1.50;0.95;;;18.00;89.00;;;;;;5003414;28;19941;-74
2023/08/28 07:57:34;;;;;;;;;;;18.00;1.00;;;;;;4971266;28;20486;-74
2023/08/28 08:00:06;;;;;;;1.70;0.70;;;18.00;99.90;;;;;;4976077;28;20313;-74
2023/08/28 08:02:32;;;;;;;1.08;0.60;;;18.20;99.90;;;;;;4970513;28;20051;-74
2023/08/28 08:04:58;;;;;;;1.48;0.70;;;18.40;99.90;;;;;;4970672;28;20054;-74
2023/08/28 08:07:23;;;;;;;;;;;18.40;35.80;;;;;;4970844;28;20043;-74
2023/08/28 08:09:49;;;;;;;1.75;0.70;;;18.40;99.90;;;;;;4991904;28;19923;-74
2023/08/28 08:12:15;;;;;;;;;;;18.40;3.40;;;;;;4954734;28;20070;-74
2023/08/28 08:14:40;;;;;;;2.88;0.80;;;18.40;99.90;;;;;;4961394;28;19981;-74
2023/08/28 08:17:06;;;;;;;;;;;18.30;1.00;;;;;;4952018;28;20051;-74
2023/08/28 08:19:33;;;;;;;0.95;0.70;;;18.20;99.90;;;;;;4970477;28;20028;-74
2023/08/28 08:21:58;;;;;;;1.00;0.60;;;18.40;99.90;;;;;;4947211;28;20109;-75
2023/08/28 08:24:24;;;;;;;;;;;18.70;99.90;;;;;;4970255;28;20043;-74
2023/08/28 08:26:50;;;;;;;1.02;0.60;;;19.20;83.00;;;;;;4970660;28;20363;-74
2023/08/28 08:29:15;;;;;;;0.40;0.32;;;19.10;94.80;;;;;;4951177;29;20471;-75
2023/08/28 08:31:41;;;;;;;2.10;1.02;;;19.00;1.00;;;;;;4970271;28;20415;-75
2023/08/28 08:34:07;;;;;;;;;;;18.90;1.00;;;;;;4971024;28;20050;-75
2023/08/28 08:36:33;;;;;;;1.95;0.55;;;19.10;99.90;;;;;;4988801;28;20365;-74
2023/08/28 08:38:58;;;;;;;;;;;19.10;99.90;;;;;;4945405;29;20118;-74
2023/08/28 08:41:24;;;;;;;1.92;0.70;;;19.00;99.90;;;;;;4982841;28;19950;-74
2023/08/28 08:43:50;;;;;;;1.75;0.60;;;18.90;99.90;;;;;;4958207;28;20079;-74
2023/08/28 08:46:17;;;;;;;1.20;0.40;;;19.10;95.60;;;;;;4970612;28;20074;-74
2023/08/28 08:48:45;;;;;;;1.27;0.47;;;19.60;99.90;;;;;;4956376;28;20374;-74
2023/08/28 08:51:14;;;;;;;0.55;0.50;;;19.30;99.90;;;;;;4970090;28;20054;-75
2023/08/28 08:53:45;;;;;;;1.42;0.40;;;19.10;1.00;;;;;;4950539;29;20059;-74
2023/08/28 08:56:16;;;;;;;1.30;0.40;;;18.80;99.90;;;;;;4977869;28;20128;-74
2023/08/28 08:58:43;;;;;;;0.93;0.50;;;18.60;99.90;;;;;;4953199;28;20054;-74
2023/08/28 09:01:09;;;;;;;1.50;0.55;;;18.80;1.20;;;;;;4970349;28;20408;-74
2023/08/28 09:03:38;;;;;;;0.82;0.38;;;19.10;99.90;;;;;;4969845;28;20039;-75
2023/08/28 09:06:06;;;;;;;0.25;0.25;;;19.30;99.90;;;;;;4970000;28;20113;-74
2023/08/28 09:08:34;;;;;;;2.28;0.43;;;19.80;99.90;;;;;;4969134;28;20126;-74
2023/08/28 09:11:00;;;;;;;0.73;0.50;;;20.00;27.20;;;;;;4957558;28;20050;-74
2023/08/28 09:13:26;;;;;;;0.30;0.20;;;20.40;99.90;;;;;;4969979;28;20539;-74
2023/08/28 09:15:52;;;;;;;0.57;0.40;;;20.70;91.40;;;;;;4964751;28;20078;-75
2023/08/28 09:18:19;;;;;;;1.35;0.40;;;21.10;30.60;;;;;;4961555;28;20086;-75
2023/08/28 09:21:08;;;;;;;0.88;0.43;;;21.00;1.00;;;;;;4953850;28;20149;-75
2023/08/28 09:23:35;;;;;;;1.58;0.45;;;20.40;1.00;;;;;;4986185;28;20062;-75
2023/08/28 09:26:02;;;;;;;0.93;0.50;;;19.90;99.90;;;;;;4953734;28;20039;-75
2023/08/28 09:28:28;;;;;;;2.75;0.50;;;19.50;99.90;;;;;;4960052;28;20415;-74
2023/08/28 09:30:54;;;;;;;1.15;0.50;;;19.10;1.00;;;;;;4954181;28;20047;-75
2023/08/28 09:33:20;;;;;;;0.70;0.32;;;18.90;99.90;;;;;;4964688;28;20106;-75
2023/08/28 09:35:45;;;;;;;;;;;18.80;99.90;;;;;;4981684;28;20057;-75
2023/08/28 09:38:12;;;;;;;1.20;0.50;;;18.60;99.90;;;;;;4986267;28;19922;-75
2023/08/28 09:40:40;;;;;;;0.80;0.50;;;18.50;5.40;;;;;;4979076;28;20401;-74
2023/08/28 09:43:24;;;;;;;0.50;0.50;;;18.80;42.40;;;;;;4971787;28;20187;-75
2023/08/28 09:45:58;;;;;;;0.95;0.50;;;19.20;1.00;;;;;;4963395;28;20051;-74
2023/08/28 09:48:24;;;;;;;0.80;0.40;;;19.00;1.00;;;;;;4956864;28;20487;-74
2023/08/28 09:50:52;;;;;;;0.70;0.52;;;18.80;99.90;;;;;;4989494;28;20170;-74
2023/08/28 09:53:27;;;;;;;1.63;0.50;;;18.40;99.90;;;;;;4971259;28;20070;-74
2023/08/28 09:55:53;;;;;;;1.58;0.70;;;17.80;99.90;;;;;;4961919;28;20382;-74
2023/08/28 09:58:23;;;;;;;;;;;17.50;1.00;;;;;;4972393;28;20050;-74
2023/08/28 10:00:50;;;;;;;0.90;0.50;;;17.40;99.90;;;;;;4986875;28;19922;-75
2023/08/28 10:03:16;;;;;;;1.00;0.40;;;17.30;99.90;;;;;;4972741;28;20057;-74
2023/08/28 10:05:44;;;;;;;1.15;0.50;;;17.20;1.00;;;;;;4972953;28;20038;-74
2023/08/28 10:08:15;;;;;;;0.80;0.40;;;17.10;1.00;;;;;;4972692;28;20046;-74
2023/08/28 10:10:45;;;;;;;1.88;0.60;;;17.10;18.40;;;;;;4972859;28;20399;-74
2023/08/28 10:13:15;;;;;;;2.38;0.68;;;17.00;99.90;;;;;;4972502;28;20592;-74
2023/08/28 10:15:53;;;;;;;0.65;0.50;;;17.10;99.90;;;;;;4937280;29;20157;-74
2023/08/28 10:18:37;;;;;;;2.72;0.60;;;17.20;99.90;;;;;;4964249;28;20078;-74
2023/08/28 10:21:04;;;;;;;0.80;0.50;;;17.20;99.90;;;;;;4972254;28;20039;-74
2023/08/28 10:23:31;;;;;;;0.50;0.45;;;17.20;1.00;;;;;;4960718;28;20043;-75
2023/08/28 10:25:58;;;;;;;1.15;0.50;;;17.20;1.00;;;;;;4970576;28;20042;-75
2023/08/28 10:28:25;;;;;;;0.50;0.45;;;17.30;1.00;;;;;;4972130;28;20075;-74
2023/08/28 10:30:52;;;;;;;0.50;0.32;;;17.40;1.00;;;;;;4953494;28;20417;-74
2023/08/28 10:33:22;;;;;;;1.02;0.38;;;17.60;1.00;;;;;;4961667;28;20097;-74
2023/08/28 10:35:53;;;;;;;0.45;0.40;;;17.70;1.00;;;;;;4952776;29;20089;-74
2023/08/28 10:38:20;;;;;;;0.60;0.43;;;17.90;99.90;;;;;;4957015;28;20141;-74
2023/08/28 10:40:55;;;;;;;0.88;0.43;;;17.90;1.00;;;;;;4971333;28;20086;-74
2023/08/28 10:43:22;;;;;;;0.75;0.40;;;18.10;46.00;;;;;;4973481;28;20038;-74
2023/08/28 10:45:51;;;;;;;0.65;0.35;;;18.20;77.20;;;;;;4972078;28;20047;-74
2023/08/28 10:48:17;;;;;;;0.38;0.32;;;18.20;1.00;;;;;;4942446;28;20047;-74
2023/08/28 10:50:42;;;;;;;;;;;18.40;1.00;;;;;;4964866;28;20049;-74
2023/08/28 10:53:13;;;;;;;0.40;0.30;;;18.50;99.90;;;;;;4982022;28;20345;-74
2023/08/28 10:55:59;;;;;;;0.43;0.30;;;18.50;99.90;;;;;;4971992;28;20092;-74
2023/08/28 10:58:30;;;;;;;0.40;0.20;;;18.60;34.70;;;;;;4988158;28;20072;-74
2023/08/28 11:01:15;;;;;;;1.35;0.40;;;18.60;1.00;;;;;;4971589;28;20077;-74
2023/08/28 11:03:58;;;;;;;1.35;0.50;;;18.60;48.10;;;;;;4969021;28;20047;-74
2023/08/28 11:06:44;;;;;;;0.57;0.30;;;18.80;99.90;;;;;;4962288;28;20482;-74
2023/08/28 11:09:28;;;;;;;0.50;0.30;;;19.00;1.00;;;;;;4951488;28;20130;-74
2023/08/28 11:12:00;;;;;;;0.88;0.30;;;19.20;99.90;;;;;;4980936;28;20146;-74
2023/08/28 11:14:39;;;;;;;0.40;0.20;;;19.50;61.00;;;;;;4964282;28;20134;-74
2023/08/28 11:17:18;;;;;;;0.95;0.38;;;20.00;99.90;;;;;;4951580;28;20524;-74
2023/08/28 11:19:56;;;;;;;1.00;0.68;;;20.20;1.00;;;;;;4961098;28;20437;-74
2023/08/28 11:22:31;;;;;;;1.13;0.60;;;20.10;99.90;;;;;;4971022;28;20077;-74
2023/08/28 11:24:57;;;;;;;1.05;0.60;;;19.80;99.90;;;;;;4951955;29;20047;-74
2023/08/28 11:27:35;;;;;;;0.98;0.60;;;19.50;99.90;;;;;;4967707;28;20411;-74
2023/08/28 11:30:05;;;;;;;1.63;0.50;;;19.10;99.90;;;;;;4971435;28;20042;-74
2023/08/28 11:32:35;;;;;;;1.30;0.50;;;18.70;1.00;;;;;;4971560;28;20053;-74
2023/08/28 11:35:05;;;;;;;0.93;0.60;;;18.30;79.80;;;;;;4967654;28;20054;-74
2023/08/28 11:37:41;;;;;;;0.80;0.47;;;18.10;99.90;;;;;;4971192;28;20060;-74
2023/08/28 11:40:09;;;;;;;0.88;0.40;;;18.00;1.00;;;;;;4952454;28;20559;-74
2023/08/28 11:42:38;;;;;;;0.77;0.50;;;18.20;99.90;;;;;;4978569;28;20062;-74
2023/08/28 11:45:07;;;;;;;0.50;0.50;;;18.10;99.90;;;;;;4938809;28;20086;-74
2023/08/28 11:47:34;;;;;;;0.40;0.38;;;18.20;99.90;;;;;;4955128;28;20368;-74
2023/08/28 11:50:03;;;;;;;0.82;0.40;;;18.30;99.90;;;;;;4970682;28;20491;-74
2023/08/28 11:52:29;;;;;;;1.67;0.60;;;18.30;1.00;;;;;;4962300;28;20051;-74
2023/08/28 11:54:58;;;;;;;;;;;18.50;1.00;;;;;;4965616;28;20102;-74
2023/08/28 11:57:26;;;;;;;1.02;0.30;;;18.60;99.90;;;;;;4970503;28;19925;-74
2023/08/28 11:59:51;;;;;;;0.57;0.32;;;18.70;1.00;;;;;;4938688;28;20141;-74
2023/08/28 12:02:19;;;;;;;;;;;18.70;99.90;;;;;;4970780;28;20133;-74
2023/08/28 12:04:49;;;;;;;0.28;0.28;;;18.90;99.90;;;;;;4991542;28;19919;-74
2023/08/28 12:07:26;;;;;;;0.63;0.28;;;19.10;1.00;;;;;;4984790;28;20533;-74
2023/08/28 12:09:54;;;;;;;0.50;0.30;;;19.30;99.90;;;;;;4954510;28;20043;-74
2023/08/28 12:12:21;;;;;;;0.73;0.40;;;19.50;99.90;;;;;;4970264;28;20042;-74
2023/08/28 12:14:49;;;;;;;0.35;0.30;;;19.40;99.90;;;;;;4970484;28;20125;-75
2023/08/28 12:17:21;;;;;;;0.65;0.40;;;19.50;1.00;;;;;;4970376;28;20050;-75
2023/08/28 12:19:49;;;;;;;0.80;0.30;;;19.50;1.00;;;;;;4970199;28;20050;-74
2023/08/28 12:22:15;;;;;;;1.10;0.20;;;19.70;46.30;;;;;;4956511;28;20054;-75
2023/08/28 12:24:43;;;;;;;1.15;0.43;;;19.90;1.00;;;;;;4970318;28;20043;-75
2023/08/28 12:27:13;;;;;;;1.05;0.30;;;19.90;1.00;;;;;;4970091;28;20046;-74
2023/08/28 12:29:41;;;;;;;0.98;0.30;;;19.90;99.90;;;;;;4954515;28;20047;-74
2023/08/28 12:32:09;;;;;;;1.08;0.40;;;19.90;99.90;;;;;;4957637;28;20205;-74
2023/08/28 12:34:37;;;;;;;1.25;0.63;;;19.90;99.90;;;;;;4967965;28;20101;-75
2023/08/28 12:37:11;;;;;;;1.67;0.45;;;20.10;99.90;;;;;;4958505;28;20125;-74
2023/08/28 12:39:48;;;;;;;1.05;0.40;;;20.50;99.90;;;;;;4969304;28;20046;-74
2023/08/28 12:42:16;;;;;;;0.70;0.50;;;20.60;1.00;;;;;;4958852;28;20086;-74
2023/08/28 12:44:45;;;;;;;0.63;0.40;;;20.60;1.00;;;;;;4969911;28;20529;-75
2023/08/28 12:47:12;;;;;;;0.60;0.40;;;20.80;67.90;;;;;;4970036;28;20039;-75
2023/08/28 12:49:40;;;;;;;1.05;0.40;;;20.60;1.00;;;;;;4970259;28;20043;-74
2023/08/28 12:52:07;;;;;;;0.68;0.38;;;20.50;1.00;;;;;;4956081;28;20129;-74
2023/08/28 12:54:38;;;;;;;1.13;0.52;;;20.50;1.00;;;;;;4970024;28;20067;-74
2023/08/28 12:57:04;;;;;;;0.93;0.47;;;20.70;1.00;;;;;;4969686;28;20043;-74